createdAt,value
2018-02-20T06:15:33.396Z,60.30
2018-02-20T06:18:03.062Z,59.85
2018-02-20T06:20:46.606Z,59.48
2018-02-20T06:27:24.703Z,59.82
2018-02-20T06:29:54.470Z,59.67
2018-02-20T06:32:24.116Z,59.78
2018-02-20T06:34:53.975Z,60.36
2018-02-20T06:37:25.366Z,60.16
2018-02-20T06:43:18.515Z,58.78
2018-02-20T06:45:48.420Z,58.00
2018-02-20T06:48:17.948Z,58.59
2018-02-20T06:50:52.712Z,57.99
2018-02-20T06:53:24.271Z,58.19
2018-02-20T06:59:04.874Z,60.56
2018-02-20T07:01:41.957Z,60.54
2018-02-20T07:04:11.563Z,60.55
2018-02-20T07:06:44.581Z,61.32
2018-02-20T07:09:14.850Z,60.63
2018-02-20T07:11:49.237Z,60.27
2018-02-20T07:14:18.991Z,60.21
2018-02-20T07:59:10.985Z,66.51
2018-02-20T08:01:40.728Z,64.40
2018-02-20T08:04:10.252Z,63.19
2018-02-20T08:06:39.771Z,61.50
2018-02-20T08:09:09.361Z,61.03
2018-02-20T08:11:39.106Z,60.18
2018-02-20T08:14:08.734Z,59.53
2018-02-20T08:16:39.168Z,59.55
2018-02-20T08:19:08.628Z,59.08
2018-02-20T08:21:38.178Z,58.54
2018-02-20T08:24:07.972Z,58.43
2018-02-20T08:26:37.867Z,58.58
2018-02-20T08:29:07.540Z,57.71
2018-02-20T08:31:37.240Z,58.56
2018-02-20T08:34:06.817Z,58.28
2018-02-20T08:36:36.608Z,57.92
2018-02-20T08:39:06.054Z,57.90
2018-02-20T08:41:35.447Z,58.05
2018-02-20T08:44:05.147Z,57.48
2018-02-20T08:46:34.754Z,56.83
2018-02-20T08:49:04.537Z,56.89
2018-02-20T08:51:34.146Z,55.73
2018-02-20T08:54:04.146Z,54.83
2018-02-20T08:57:00.832Z,55.06
2018-02-20T08:59:32.559Z,55.92
2018-02-20T09:02:02.447Z,56.04
2018-02-20T09:04:32.389Z,55.08
2018-02-20T09:07:02.753Z,54.78
2018-02-20T09:09:32.920Z,54.70
2018-02-20T09:12:02.375Z,55.08
2018-02-20T09:14:31.937Z,56.59
2018-02-20T09:17:01.593Z,56.73
2018-02-20T09:19:31.710Z,56.26
2018-02-20T09:22:01.351Z,56.24
2018-02-20T09:24:30.884Z,56.62
2018-02-20T09:27:01.320Z,56.26
2018-02-20T09:29:30.923Z,55.74
2018-02-20T09:32:00.536Z,55.46
2018-02-20T09:34:29.968Z,55.82
2018-02-20T09:36:59.455Z,56.27
2018-02-20T09:39:28.878Z,55.39
2018-02-20T09:41:59.104Z,54.99
2018-02-20T09:44:28.517Z,54.46
2018-02-20T09:46:58.001Z,53.85
2018-02-20T09:49:27.454Z,53.57
2018-02-20T09:51:57.659Z,54.45
2018-02-20T09:54:27.261Z,53.51
2018-02-20T09:56:56.811Z,53.56
2018-02-20T09:59:26.381Z,53.52
2018-02-20T10:01:56.247Z,53.77
2018-02-20T10:04:26.015Z,53.34
2018-02-20T10:06:55.803Z,52.61
2018-02-20T10:09:26.334Z,51.81
2018-02-20T10:11:56.155Z,51.15
2018-02-20T10:14:25.801Z,52.50
2018-02-20T10:16:55.447Z,53.31
2018-02-20T10:19:25.219Z,53.46
2018-02-20T10:21:55.760Z,53.18
2018-02-20T10:24:26.338Z,52.15
2018-02-20T10:26:56.351Z,51.93
2018-02-20T10:29:25.800Z,52.79
2018-02-20T10:31:55.427Z,52.61
2018-02-20T10:34:25.029Z,52.38
2018-02-20T10:36:54.770Z,51.61
2018-02-20T10:39:36.112Z,51.48
2018-02-20T10:42:06.136Z,50.82
2018-02-20T10:44:35.735Z,50.65
2018-02-20T10:47:05.476Z,50.73
2018-02-20T10:49:35.349Z,51.07
2018-02-20T10:52:05.532Z,51.82
2018-02-20T10:54:34.980Z,50.00
2018-02-20T10:57:09.191Z,50.87
2018-02-20T10:59:38.817Z,51.35
2018-02-20T11:02:08.247Z,51.65
2018-02-20T11:04:37.766Z,51.81
2018-02-20T11:07:07.367Z,52.92
2018-02-20T11:09:38.408Z,51.67
2018-02-20T11:12:07.944Z,51.67
2018-02-20T11:14:37.782Z,51.18
2018-02-20T11:17:07.161Z,51.29
2018-02-20T11:19:36.562Z,50.49
2018-02-20T11:22:06.673Z,50.08
2018-02-20T11:24:36.579Z,49.91
2018-02-20T11:27:06.765Z,49.23
2018-02-20T11:29:37.290Z,48.70
2018-02-20T11:32:10.279Z,49.45
2018-02-20T11:34:40.242Z,47.34
2018-02-20T11:37:10.920Z,47.84
2018-02-20T11:39:40.827Z,48.12
2018-02-20T13:25:50.833Z,53.66
2018-02-20T13:28:39.890Z,54.23
2018-02-20T13:31:09.654Z,55.22
2018-02-20T13:33:39.450Z,53.54
2018-02-20T13:36:09.144Z,54.61
2018-02-20T13:38:38.702Z,55.33
2018-02-20T13:41:08.365Z,55.56
2018-02-20T13:43:37.821Z,55.12
2018-02-20T13:46:07.173Z,55.21
2018-02-20T13:48:36.803Z,54.99
2018-02-20T13:51:07.472Z,55.94
2018-02-20T13:53:37.119Z,55.55
2018-02-20T13:56:06.567Z,55.85
2018-02-20T13:58:36.096Z,55.27
2018-02-20T14:01:05.897Z,56.15
2018-02-20T14:03:36.155Z,56.73
2018-02-20T14:06:06.591Z,56.73
2018-02-20T14:08:36.088Z,56.70
2018-02-20T14:11:06.093Z,57.78
2018-02-20T14:13:35.431Z,58.35
2018-02-20T14:16:05.198Z,57.92
2018-02-20T14:18:34.834Z,56.24
2018-02-20T14:21:05.092Z,55.78
2018-02-20T14:23:34.969Z,52.78
2018-02-20T14:26:04.390Z,54.63
2018-02-20T14:28:34.105Z,55.52
2018-02-20T14:31:03.998Z,55.93
2018-02-20T14:33:33.526Z,55.72
2018-02-20T14:36:05.097Z,55.55
2018-02-20T14:38:35.616Z,56.37
2018-02-20T14:41:05.163Z,56.22
2018-02-20T14:43:34.697Z,56.33
2018-02-20T14:46:08.778Z,56.11
2018-02-20T15:02:43.530Z,58.46
2018-02-20T15:05:16.614Z,58.83
2018-02-20T15:07:54.178Z,58.90
2018-02-20T15:10:23.944Z,57.69
2018-02-20T15:12:53.606Z,58.25
2018-02-20T15:15:23.139Z,57.88
2018-02-20T15:17:52.697Z,57.89
2018-02-20T15:20:22.329Z,57.76
2018-02-20T15:22:51.804Z,58.10
2018-02-20T15:25:21.286Z,58.27
2018-02-20T15:27:50.754Z,58.99
2018-02-20T15:30:20.123Z,59.02
2018-02-20T15:32:49.486Z,59.22
2018-02-20T15:35:18.810Z,59.29
2018-02-20T15:37:48.285Z,59.46
2018-02-20T15:40:17.723Z,59.92
2018-02-20T15:42:47.181Z,59.67
2018-02-20T15:45:16.654Z,58.51
2018-02-20T15:47:46.527Z,58.83
2018-02-20T17:25:42.703Z,60.60
2018-02-20T17:28:12.448Z,59.66
2018-02-20T17:30:42.271Z,60.69
2018-02-20T17:33:12.259Z,60.35
2018-02-20T17:35:43.132Z,60.45
2018-02-20T17:38:13.209Z,59.52
2018-02-20T17:40:42.621Z,59.58
2018-02-20T17:43:12.236Z,60.06
2018-02-20T17:45:41.837Z,60.97
2018-02-20T17:48:12.318Z,61.02
2018-02-20T17:50:42.044Z,60.40
2018-02-20T17:53:11.522Z,60.69
2018-02-20T18:02:20.792Z,63.52
2018-02-20T18:04:50.370Z,62.92
2018-02-20T18:07:19.886Z,61.67
2018-02-20T18:09:49.662Z,60.17
2018-02-20T18:12:19.276Z,60.04
2018-02-20T18:14:48.857Z,60.93
2018-02-20T19:41:34.625Z,60.76
2018-02-20T19:44:04.237Z,61.07
2018-02-20T19:46:33.944Z,60.13
2018-02-20T19:49:04.184Z,60.55
2018-02-20T19:51:34.353Z,61.62
2018-02-20T19:54:04.174Z,61.59
2018-02-20T20:00:09.745Z,61.88
2018-02-20T20:02:39.380Z,60.96
2018-02-20T20:05:08.784Z,60.73
2018-02-20T20:07:38.203Z,60.89
2018-02-20T20:10:07.647Z,61.24
2018-02-20T20:12:37.573Z,61.74
2018-02-20T20:15:07.237Z,61.56
2018-02-20T20:17:37.165Z,61.59
2018-02-20T20:20:06.702Z,61.46
2018-02-20T20:22:36.361Z,61.48
2018-02-20T20:25:05.925Z,61.50
2018-02-20T20:27:35.615Z,61.60
2018-02-20T20:30:05.560Z,61.56
2018-02-20T20:32:35.202Z,61.37
